Time;durP1;ratioP1;P1;durP2;ratioP2;P2;SDS_P1;SDS_P2;PMS_P1;PMS_P2;Temp;Humidity;BMP_temperature;BMP_pressure;BME280_temperature;BME280_humidity;BME280_pressure;Samples;Min_cycle;Max_cycle;Signal;HPM_P1;HPM_P2
2023/04/26 03:04:59;;;;;;;11.80;4.60;;;;;;;4.55;75.56;98507.30;107028;1302;544881;-48
2023/04/26 03:07:24;;;;;;;14.00;4.50;;;;;;;4.52;74.44;98514.02;107374;1313;22496;-47
2023/04/26 03:09:49;;;;;;;18.80;4.70;;;;;;;4.37;76.28;98511.71;107399;1313;22541;-55
2023/04/26 03:12:15;;;;;;;13.70;5.20;;;;;;;4.34;76.13;98514.95;107384;1313;23708;-42
2023/04/26 03:14:40;;;;;;;14.90;4.40;;;;;;;4.31;76.65;98515.97;107374;1313;22443;-46
2023/04/26 03:17:06;;;;;;;9.10;4.30;;;;;;;4.29;76.82;98519.31;107384;1313;23211;-46
2023/04/26 03:19:31;;;;;;;15.90;4.80;;;;;;;4.30;76.25;98521.73;107451;1310;142494;-56
2023/04/26 03:21:57;;;;;;;17.50;5.00;;;;;;;4.27;76.86;98520.30;107715;1309;22305;-46
2023/04/26 03:24:22;;;;;;;14.20;5.00;;;;;;;4.23;76.97;98524.27;107708;1309;22490;-54
2023/04/26 03:26:47;;;;;;;14.60;5.10;;;;;;;4.20;77.91;98527.52;107673;1309;22467;-54
2023/04/26 03:29:13;;;;;;;14.30;4.80;;;;;;;4.20;76.98;98532.20;107675;1309;22365;-51
2023/04/26 03:31:39;;;;;;;14.40;5.50;;;;;;;4.16;77.69;98535.15;107679;1309;22460;-49
2023/04/26 03:34:04;;;;;;;18.50;6.20;;;;;;;4.12;77.87;98530.80;107678;1309;22841;-42
2023/04/26 03:36:30;;;;;;;17.60;6.90;;;;;;;4.10;77.34;98532.27;107681;1309;22243;-50
2023/04/26 03:38:55;;;;;;;19.70;7.60;;;;;;;4.06;78.27;98534.70;107684;1309;22215;-53
2023/04/26 03:41:21;;;;;;;15.20;6.40;;;;;;;4.04;78.61;98533.89;107677;1309;22782;-47
2023/04/26 03:43:47;;;;;;;18.40;6.80;;;;;;;4.01;78.80;98537.80;107677;1309;22238;-46
2023/04/26 03:46:12;;;;;;;15.90;6.20;;;;;;;3.98;78.89;98537.59;107696;1309;23116;-48
2023/04/26 03:48:37;;;;;;;15.60;6.90;;;;;;;3.97;78.94;98534.70;107675;1309;22237;-49
2023/04/26 03:51:03;;;;;;;16.50;6.80;;;;;;;3.94;79.47;98541.94;107678;1309;22424;-52
2023/04/26 03:53:28;;;;;;;19.20;7.50;;;;;;;3.98;79.40;98545.95;107664;1309;22249;-53
2023/04/26 03:55:53;;;;;;;13.50;7.00;;;;;;;3.99;78.82;98548.15;107645;1309;22314;-52
2023/04/26 03:58:18;;;;;;;21.40;7.40;;;;;;;3.97;79.11;98551.02;107701;1309;22424;-45
2023/04/26 04:00:44;;;;;;;16.20;7.20;;;;;;;3.96;79.28;98552.96;107680;1309;23094;-50
2023/04/26 04:03:09;;;;;;;17.70;7.50;;;;;;;3.98;78.48;98554.10;107669;1309;22182;-46
2023/04/26 04:05:34;;;;;;;18.70;8.00;;;;;;;3.91;79.23;98556.30;107701;1309;22230;-58
2023/04/26 04:08:01;;;;;;;22.20;7.90;;;;;;;3.96;78.89;98562.50;107674;1309;22266;-49
2023/04/26 04:10:28;;;;;;;17.30;8.20;;;;;;;3.98;78.45;98568.33;107684;1309;22256;-45
2023/04/26 04:12:53;;;;;;;25.30;10.20;;;;;;;3.96;79.68;98567.72;107325;1310;22457;-48
2023/04/26 04:15:19;;;;;;;24.90;9.70;;;;;;;4.00;78.88;98566.47;107677;1309;22251;-48
2023/04/26 04:17:44;;;;;;;23.80;9.30;;;;;;;4.00;79.74;98564.23;107677;1310;22905;-51
2023/04/26 04:20:11;;;;;;;21.40;8.80;;;;;;;4.02;79.63;98564.84;107679;1310;22424;-49
2023/04/26 04:22:38;;;;;;;17.40;8.90;;;;;;;3.98;80.07;98568.30;107681;1310;22253;-51
2023/04/26 04:25:05;;;;;;;22.80;9.80;;;;;;;3.99;79.83;98569.83;107679;1310;22258;-46
2023/04/26 04:27:30;;;;;;;20.60;9.20;;;;;;;3.98;79.95;98568.48;107676;1310;22246;-52
2023/04/26 04:29:56;;;;;;;25.10;8.60;;;;;;;3.96;80.23;98566.30;107659;1310;23374;-48
2023/04/26 04:32:22;;;;;;;24.10;9.20;;;;;;;4.03;79.44;98562.72;107637;1294;22320;-50
2023/04/26 04:34:48;;;;;;;23.70;9.60;;;;;;;4.07;79.27;98564.31;107685;1310;22290;-49
2023/04/26 04:37:14;;;;;;;22.90;9.30;;;;;;;4.09;79.76;98567.34;107790;1308;22263;-48
2023/04/26 04:39:39;;;;;;;22.20;8.90;;;;;;;4.13;79.73;98569.59;107816;1308;22237;-56
2023/04/26 04:42:04;;;;;;;28.20;9.60;;;;;;;4.12;79.27;98574.48;107806;1308;22406;-49
2023/04/26 04:44:30;;;;;;;21.80;9.30;;;;;;;4.18;79.49;98573.55;107788;1308;23169;-48
2023/04/26 04:46:55;;;;;;;19.00;8.70;;;;;;;4.22;79.27;98585.55;107778;1308;22245;-51
2023/04/26 04:49:21;;;;;;;19.40;8.70;;;;;;;4.21;79.76;98584.73;107802;1308;22274;-48
2023/04/26 04:51:46;;;;;;;17.10;7.60;;;;;;;4.22;79.57;98592.31;107780;1308;22236;-51
2023/04/26 04:54:14;;;;;;;16.30;7.80;;;;;;;4.26;79.39;98595.12;107794;1308;22926;-42
2023/04/26 04:56:39;;;;;;;19.40;7.80;;;;;;;4.28;79.32;98592.08;107799;1308;22958;-49
2023/04/26 04:59:05;;;;;;;9.90;6.60;;;;;;;4.30;79.32;98589.74;107797;1308;22286;-49
2023/04/26 05:01:33;;;;;;;13.70;6.80;;;;;;;4.32;78.86;98587.08;107806;1308;22225;-50
2023/04/26 05:03:59;;;;;;;11.60;6.10;;;;;;;4.28;79.07;98584.63;107784;1308;22221;-53
2023/04/26 05:06:26;;;;;;;14.30;6.10;;;;;;;4.26;78.99;98588.50;107617;1308;22225;-48
2023/04/26 05:08:51;;;;;;;16.70;6.40;;;;;;;4.26;78.89;98590.10;107808;1308;22450;-50
2023/04/26 05:11:17;;;;;;;20.20;5.50;;;;;;;4.28;78.68;98589.64;107788;1308;23002;-49
2023/04/26 05:13:42;;;;;;;11.90;5.10;;;;;;;4.25;79.12;98594.79;107803;1308;22814;-55
2023/04/26 05:16:07;;;;;;;16.30;5.80;;;;;;;4.29;78.79;98588.93;107797;1308;22292;-43
2023/04/26 05:18:32;;;;;;;11.50;5.10;;;;;;;4.29;78.93;98591.54;107813;1308;22234;-45
2023/04/26 05:20:58;;;;;;;13.30;5.70;;;;;;;4.36;78.71;98598.35;107789;1308;22939;-50
2023/04/26 05:23:23;;;;;;;17.90;5.30;;;;;;;4.42;78.16;98593.23;107774;1308;22263;-49
2023/04/26 05:25:49;;;;;;;16.50;4.40;;;;;;;4.47;78.04;98596.86;107796;1301;22257;-51
2023/04/26 05:28:15;;;;;;;9.30;3.90;;;;;;;4.49;78.17;98597.10;107827;1308;22233;-53
2023/04/26 05:30:40;;;;;;;14.00;4.40;;;;;;;4.58;77.63;98599.87;107827;1308;22236;-48
2023/04/26 05:33:06;;;;;;;11.10;3.50;;;;;;;4.66;77.50;98601.30;107814;1308;22224;-51
2023/04/26 05:35:32;;;;;;;7.90;2.60;;;;;;;4.73;76.86;98602.16;107804;1308;22340;-48
2023/04/26 05:37:57;;;;;;;9.60;2.90;;;;;;;4.71;76.27;98602.12;107817;1308;23162;-51
2023/04/26 05:40:23;;;;;;;15.20;3.10;;;;;;;4.77;76.21;98608.45;107634;1308;22267;-49
2023/04/26 05:42:49;;;;;;;12.00;3.20;;;;;;;4.83;75.81;98610.64;107820;1308;22250;-50
2023/04/26 05:45:15;;;;;;;5.40;2.50;;;;;;;4.87;75.49;98605.92;107802;1308;22290;-53
2023/04/26 05:47:40;;;;;;;8.90;2.20;;;;;;;4.95;75.25;98606.65;107814;1307;22180;-50
2023/04/26 05:50:07;;;;;;;8.20;2.90;;;;;;;4.94;74.98;98608.76;107811;1308;22392;-54
2023/04/26 05:52:32;;;;;;;9.40;3.10;;;;;;;4.99;75.02;98608.73;107812;1308;23181;-55
2023/04/26 05:54:57;;;;;;;9.60;2.60;;;;;;;4.96;74.99;98607.63;107805;1308;22287;-47
2023/04/26 05:57:22;;;;;;;13.80;2.60;;;;;;;5.08;74.58;98610.92;107811;1308;22422;-48
2023/04/26 05:59:48;;;;;;;7.30;2.40;;;;;;;5.09;73.95;98617.83;107798;1308;22338;-45
2023/04/26 06:02:13;;;;;;;13.80;2.90;;;;;;;5.09;73.70;98617.64;107820;1308;22218;-50
2023/04/26 06:04:38;;;;;;;11.20;2.50;;;;;;;5.11;73.60;98620.52;107791;1308;22266;-51
2023/04/26 06:07:03;;;;;;;14.50;3.20;;;;;;;5.16;73.68;98624.84;107808;1308;22532;-52
2023/04/26 06:09:31;;;;;;;6.40;2.50;;;;;;;5.14;73.22;98629.06;107804;1308;22415;-51
2023/04/26 06:11:56;;;;;;;9.30;2.20;;;;;;;5.13;73.06;98629.67;107786;1308;22251;-47
2023/04/26 06:14:21;;;;;;;9.70;2.30;;;;;;;5.16;72.96;98632.48;107813;1308;22252;-50
2023/04/26 06:16:47;;;;;;;13.40;2.60;;;;;;;5.16;72.90;98638.75;107799;1308;23060;-53
2023/04/26 06:19:12;;;;;;;14.00;3.20;;;;;;;5.21;72.43;98636.09;107797;1308;22209;-54
2023/04/26 06:21:37;;;;;;;8.40;2.20;;;;;;;5.19;72.11;98638.62;107820;1308;22393;-50
2023/04/26 06:24:03;;;;;;;8.50;2.20;;;;;;;5.21;72.15;98635.21;107822;1308;22243;-55
2023/04/26 06:26:30;;;;;;;7.60;2.50;;;;;;;5.28;72.07;98636.63;107811;1308;22239;-50
2023/04/26 06:28:55;;;;;;;6.90;1.80;;;;;;;5.31;71.77;98637.91;107794;1308;22213;-53
2023/04/26 06:31:21;;;;;;;11.00;2.40;;;;;;;5.34;71.35;98636.36;107790;1308;22890;-46
2023/04/26 06:33:47;;;;;;;5.00;2.20;;;;;;;5.37;71.40;98637.25;107789;1308;22228;-50
2023/04/26 06:36:12;;;;;;;10.80;2.50;;;;;;;5.37;71.02;98636.94;107787;1308;22511;-57
2023/04/26 06:38:38;;;;;;;13.50;2.70;;;;;;;5.45;70.55;98633.80;107790;1308;22254;-51
2023/04/26 06:41:03;;;;;;;8.00;2.30;;;;;;;5.54;70.42;98633.05;107804;1308;22291;-54
2023/04/26 06:43:28;;;;;;;14.90;2.30;;;;;;;5.58;70.25;98633.71;107775;1308;22221;-51
2023/04/26 06:45:53;;;;;;;6.50;2.10;;;;;;;5.65;69.96;98632.38;107758;1308;23023;-49
2023/04/26 06:48:21;;;;;;;9.80;2.10;;;;;;;5.74;69.84;98632.48;107780;1308;22479;-53
2023/04/26 06:50:47;;;;;;;12.80;2.40;;;;;;;5.82;69.61;98636.80;107791;1308;22393;-45
2023/04/26 06:53:12;;;;;;;7.60;1.70;;;;;;;5.89;69.02;98639.29;107805;1308;23023;-48
2023/04/26 06:55:38;;;;;;;7.60;2.00;;;;;;;5.91;67.87;98639.02;107798;1308;22256;-51
2023/04/26 06:58:03;;;;;;;7.30;1.90;;;;;;;5.89;67.28;98636.00;107766;1308;22884;-56
2023/04/26 07:00:29;;;;;;;20.30;2.50;;;;;;;5.94;67.77;98632.44;107766;1308;22313;-50
2023/04/26 07:02:54;;;;;;;8.00;2.60;;;;;;;6.07;68.13;98631.33;107822;1308;22218;-54
2023/04/26 07:05:20;;;;;;;6.20;1.50;;;;;;;6.11;66.69;98638.23;107780;1308;23161;-48
2023/04/26 07:07:45;;;;;;;10.80;2.10;;;;;;;6.11;65.02;98632.90;107791;1308;22979;-50
2023/04/26 07:10:12;;;;;;;7.20;2.00;;;;;;;6.11;65.68;98632.85;107805;1308;22500;-52
2023/04/26 07:12:37;;;;;;;10.50;2.10;;;;;;;6.16;65.35;98628.45;107796;1308;22220;-49
2023/04/26 07:15:05;;;;;;;10.80;2.30;;;;;;;6.14;64.77;98630.63;107783;1308;22165;-47
2023/04/26 07:17:31;;;;;;;8.10;1.90;;;;;;;6.19;64.52;98633.16;107801;1308;22240;-47
2023/04/26 07:19:56;;;;;;;8.40;1.80;;;;;;;6.27;63.64;98635.61;107822;1308;22340;-51
2023/04/26 07:22:22;;;;;;;13.50;2.10;;;;;;;6.40;63.89;98637.09;107777;1308;22222;-47
2023/04/26 07:24:47;;;;;;;12.40;2.20;;;;;;;6.44;63.18;98646.26;107809;1308;23019;-50
2023/04/26 07:27:12;;;;;;;15.80;2.30;;;;;;;6.48;62.80;98644.17;107767;1308;22235;-50
2023/04/26 07:29:38;;;;;;;12.70;1.90;;;;;;;6.55;62.48;98642.44;107790;1308;22287;-50
2023/04/26 07:32:03;;;;;;;6.60;1.80;;;;;;;6.64;61.95;98644.96;107768;1308;22242;-52
2023/04/26 07:34:29;;;;;;;7.40;1.60;;;;;;;6.67;60.97;98644.60;107804;1308;22486;-51
2023/04/26 07:36:55;;;;;;;8.40;1.40;;;;;;;6.80;60.86;98645.55;107799;1308;23019;-51
2023/04/26 07:39:20;;;;;;;9.20;1.90;;;;;;;6.84;59.51;98650.38;107780;1308;22410;-49
2023/04/26 07:41:45;;;;;;;7.60;1.80;;;;;;;6.83;59.45;98647.15;107848;1307;22943;-46
2023/04/26 07:44:10;;;;;;;6.40;1.80;;;;;;;6.88;59.65;98656.80;107901;1307;22795;-55
2023/04/26 07:46:36;;;;;;;10.40;1.50;;;;;;;6.86;57.43;98664.02;107891;1307;22825;-49
2023/04/26 07:49:01;;;;;;;6.50;1.60;;;;;;;6.93;57.69;98656.02;107903;1307;23241;-48
2023/04/26 07:51:27;;;;;;;4.80;1.50;;;;;;;7.04;57.28;98664.71;107926;1307;22240;-53
2023/04/26 07:53:54;;;;;;;9.90;1.50;;;;;;;7.08;57.03;98671.31;107929;1307;23055;-43
2023/04/26 07:56:20;;;;;;;6.10;1.20;;;;;;;7.01;56.40;98673.94;107939;1307;22237;-49
2023/04/26 07:58:46;;;;;;;7.90;1.90;;;;;;;7.02;56.43;98672.64;107780;1302;23203;-56
2023/04/26 08:01:11;;;;;;;7.20;1.80;;;;;;;7.13;56.55;98668.64;107769;1308;22340;-54
2023/04/26 08:03:36;;;;;;;9.50;1.80;;;;;;;7.08;54.19;98672.88;107774;1308;22221;-49
2023/04/26 08:06:02;;;;;;;6.00;1.70;;;;;;;7.04;54.26;98676.77;107799;1308;22268;-51
2023/04/26 08:08:28;;;;;;;3.50;1.50;;;;;;;6.99;53.10;98678.42;107802;1308;22235;-53
2023/04/26 08:10:54;;;;;;;6.30;1.30;;;;;;;7.10;53.07;98679.27;107790;1308;22244;-49
2023/04/26 08:13:20;;;;;;;10.00;1.30;;;;;;;7.19;53.52;98679.80;107776;1308;22220;-52
2023/04/26 08:15:46;;;;;;;7.50;2.40;;;;;;;7.29;53.57;98676.34;107805;1308;22269;-50
2023/04/26 08:18:12;;;;;;;10.30;1.80;;;;;;;7.40;53.75;98676.66;107807;1308;23080;-45
2023/04/26 08:20:37;;;;;;;7.30;1.50;;;;;;;7.47;53.62;98686.73;107771;1308;22563;-56
2023/04/26 08:23:02;;;;;;;6.30;1.40;;;;;;;7.46;53.24;98691.52;107800;1308;22228;-46
2023/04/26 08:25:28;;;;;;;5.70;1.70;;;;;;;7.39;51.76;98688.73;107792;1308;23361;-51
2023/04/26 08:27:54;;;;;;;8.00;1.40;;;;;;;7.35;51.15;98694.17;107802;1308;23043;-49
2023/04/26 08:30:20;;;;;;;7.80;1.80;;;;;;;7.37;50.61;98695.30;107798;1308;22222;-42
2023/04/26 08:32:45;;;;;;;7.70;1.60;;;;;;;7.48;50.99;98699.45;107777;1308;22300;-49
2023/04/26 08:35:11;;;;;;;9.20;1.90;;;;;;;7.52;51.34;98695.89;107773;1308;22247;-51
2023/04/26 08:37:37;;;;;;;8.60;1.30;;;;;;;7.56;49.71;98706.37;107783;1308;23304;-49
2023/04/26 08:40:09;;;;;;;16.90;1.70;;;;;;;7.51;48.32;98708.20;107817;1308;22429;-52
2023/04/26 08:42:42;;;;;;;6.40;1.80;;;;;;;7.67;48.80;98706.13;107807;1308;23205;-50
2023/04/26 08:45:10;;;;;;;7.20;1.90;;;;;;;7.98;49.35;98703.23;107723;1308;23749;-52
2023/04/26 08:47:59;;;;;;;4.80;1.30;;;;;;;8.14;47.75;98707.24;107769;1308;22367;-48
2023/04/26 08:50:24;;;;;;;5.20;1.50;;;;;;;8.27;46.82;98712.17;107737;1308;22240;-49
2023/04/26 08:52:51;;;;;;;5.30;1.60;;;;;;;8.37;46.06;98711.23;107764;1308;23129;-51
2023/04/26 08:55:18;;;;;;;6.00;1.30;;;;;;;8.49;45.50;98711.67;107803;1308;22389;-50
2023/04/26 08:57:47;;;;;;;5.20;1.80;;;;;;;8.62;44.99;98709.89;107686;1305;22433;-47
2023/04/26 09:00:14;;;;;;;8.50;1.70;;;;;;;8.38;43.35;98719.26;107606;1308;22408;-52
2023/04/26 09:02:41;;;;;;;4.80;1.30;;;;;;;8.28;44.12;98715.27;107689;1301;22599;-54
2023/04/26 09:05:08;;;;;;;4.70;1.70;;;;;;;8.29;44.84;98716.21;106743;1305;22570;-50
2023/04/26 09:07:43;;;;;;;7.80;1.40;;;;;;;8.50;45.27;98706.70;107773;1308;22467;-45
2023/04/26 09:10:11;;;;;;;8.10;1.40;;;;;;;8.86;45.08;98707.83;107353;1308;22630;-55
2023/04/26 09:12:36;;;;;;;;;;;;;;;9.28;44.22;98714.86;107779;1308;22453;-53
2023/04/26 09:15:03;;;;;;;5.70;1.50;;;;;;;9.47;42.35;98717.90;107314;1308;22577;-47
2023/04/26 09:17:33;;;;;;;5.80;1.40;;;;;;;9.52;42.53;98713.59;107395;1308;22229;-54
2023/04/26 09:19:59;;;;;;;4.20;1.30;;;;;;;9.41;42.66;98714.20;107771;1308;22246;-48
2023/04/26 09:22:29;;;;;;;14.70;2.00;;;;;;;9.34;42.51;98714.11;107582;1308;22223;-53
